Terminal Aerodrome Forecast
Issued by NWS

Home | Current Version | Previous Version | Text Only | Print | Product List | Glossary On
Versions: 1 2 3 4 5 6 7 8 9 10 11 12 13 14 15
000
FTUS45 KABQ 291740
TAFFMN
TAF
KFMN 291740Z 2918/3018 29012G22KT P6SM FEW250
      TEMPO 2918/2919 29011KT
     FM292000 29022G32KT P6SM FEW070 FEW250
     FM300200 29011KT P6SM FEW250
     FM300600 29006KT P6SM FEW250
     FM301100 09007KT P6SM FEW180=

USA.gov is the U.S. government's official web portal to all federal, state and local government web resources and services.